createdAt,value
2023-05-28T00:00:38.923Z,3.28
2023-05-28T00:03:07.855Z,3.33
2023-05-28T00:05:35.908Z,3.40
2023-05-28T00:08:03.944Z,3.55
2023-05-28T00:10:31.764Z,3.30
2023-05-28T00:13:00.984Z,3.47
2023-05-28T00:15:29.197Z,3.88
2023-05-28T00:17:57.622Z,3.65
2023-05-28T00:20:26.517Z,3.22
2023-05-28T00:22:54.568Z,3.28
2023-05-28T00:25:22.412Z,3.25
2023-05-28T00:27:50.272Z,3.30
2023-05-28T00:30:19.733Z,3.80
2023-05-28T00:32:47.618Z,3.20
2023-05-28T00:35:15.810Z,3.75
2023-05-28T00:37:43.876Z,3.70
2023-05-28T00:40:12.661Z,3.97
2023-05-28T00:42:41.363Z,3.75
2023-05-28T00:45:10.686Z,4.00
2023-05-28T00:47:40.932Z,4.15
2023-05-28T00:50:10.812Z,4.22
2023-05-28T00:52:38.887Z,4.70
2023-05-28T00:55:15.253Z,4.70
2023-05-28T00:57:46.462Z,4.65
2023-05-28T01:00:15.245Z,4.22
2023-05-28T01:02:44.631Z,4.20
2023-05-28T01:05:12.636Z,4.20
2023-05-28T01:07:40.788Z,4.13
2023-05-28T01:10:09.522Z,4.05
2023-05-28T01:12:38.455Z,4.00
2023-05-28T01:15:07.816Z,3.72
2023-05-28T01:17:35.858Z,4.35
2023-05-28T01:20:12.137Z,4.05
2023-05-28T01:22:46.762Z,3.58
2023-05-28T01:25:17.733Z,3.90
2023-05-28T01:27:46.000Z,4.68
2023-05-28T01:30:14.737Z,3.92
2023-05-28T01:32:43.848Z,4.55
2023-05-28T01:35:12.539Z,4.35
2023-05-28T01:37:46.434Z,3.97
2023-05-28T01:40:18.208Z,3.83
2023-05-28T01:42:48.443Z,3.87
2023-05-28T01:45:17.207Z,4.40
2023-05-28T01:47:47.029Z,3.67
2023-05-28T01:50:15.616Z,4.10
2023-05-28T01:52:45.389Z,4.00
2023-05-28T01:55:14.468Z,3.83
2023-05-28T01:57:45.869Z,4.07
2023-05-28T02:00:15.947Z,4.13
2023-05-28T02:02:44.799Z,3.88
2023-05-28T02:05:16.764Z,4.47
2023-05-28T02:07:44.733Z,4.10
2023-05-28T02:10:12.715Z,4.10
2023-05-28T02:12:40.832Z,4.03
2023-05-28T02:15:12.202Z,4.35
2023-05-28T02:17:40.335Z,3.45
2023-05-28T02:20:13.099Z,4.03
2023-05-28T02:22:43.053Z,3.63
2023-05-28T02:25:11.140Z,3.92
2023-05-28T02:27:40.100Z,4.05
2023-05-28T02:30:11.694Z,4.18
2023-05-28T02:32:39.603Z,3.88
2023-05-28T02:35:09.389Z,4.10
2023-05-28T02:37:37.344Z,3.83
2023-05-28T02:40:06.954Z,3.75
2023-05-28T02:42:35.089Z,3.88
2023-05-28T02:45:03.056Z,3.90
2023-05-28T02:47:32.293Z,4.20
2023-05-28T02:50:00.709Z,4.22
2023-05-28T02:52:32.216Z,3.80
2023-05-28T02:55:00.152Z,3.92
2023-05-28T02:57:28.420Z,3.90
2023-05-28T02:59:56.516Z,3.90
2023-05-28T03:02:24.483Z,4.20
2023-05-28T03:04:54.547Z,3.95
2023-05-28T03:07:22.709Z,4.18
2023-05-28T03:09:50.971Z,4.00
2023-05-28T03:12:18.797Z,3.88
2023-05-28T03:14:46.664Z,3.90
2023-05-28T03:17:14.650Z,3.80
2023-05-28T03:19:42.644Z,3.72
2023-05-28T03:22:11.845Z,4.22
2023-05-28T03:24:42.722Z,3.58
2023-05-28T03:27:13.683Z,3.50
2023-05-28T03:29:41.698Z,3.60
2023-05-28T03:32:17.552Z,3.50
2023-05-28T03:34:45.488Z,3.38
2023-05-28T03:37:16.431Z,3.80
2023-05-28T03:39:46.115Z,3.33
2023-05-28T03:42:13.961Z,3.58
2023-05-28T03:44:42.380Z,3.92
2023-05-28T03:47:11.017Z,4.13
2023-05-28T03:49:38.992Z,3.60
2023-05-28T03:52:08.472Z,3.53
2023-05-28T03:54:46.935Z,3.83
2023-05-28T03:57:15.410Z,3.90
2023-05-28T03:59:43.378Z,3.75
2023-05-28T04:02:11.297Z,3.40
2023-05-28T04:04:39.785Z,3.40
2023-05-28T04:07:08.267Z,3.92
2023-05-28T04:09:36.258Z,3.65
2023-05-28T04:12:06.145Z,3.55
2023-05-28T04:14:34.039Z,3.50
2023-05-28T04:17:02.038Z,3.90
2023-05-28T04:19:29.992Z,3.60
2023-05-28T04:21:57.807Z,3.80
2023-05-28T04:24:25.958Z,3.65
2023-05-28T04:26:55.109Z,3.63
2023-05-28T04:29:25.830Z,3.38
2023-05-28T04:31:53.673Z,3.70
2023-05-28T04:34:22.100Z,3.42
2023-05-28T04:36:52.517Z,3.70
2023-05-28T04:39:22.137Z,3.95
2023-05-28T04:41:50.820Z,3.83
2023-05-28T04:44:19.150Z,3.50
2023-05-28T04:46:48.614Z,3.60
2023-05-28T04:49:16.510Z,3.78
2023-05-28T04:51:44.371Z,4.07
2023-05-28T04:54:12.229Z,4.05
2023-05-28T04:56:40.053Z,3.92
2023-05-28T04:59:10.813Z,4.13
2023-05-28T05:01:40.244Z,4.03
2023-05-28T05:04:10.418Z,3.67
2023-05-28T05:06:38.438Z,3.42
2023-05-28T05:09:08.568Z,3.70
2023-05-28T05:11:36.681Z,4.30
2023-05-28T05:14:06.569Z,3.78
2023-05-28T05:16:34.724Z,4.15
2023-05-28T05:19:02.594Z,3.72
2023-05-28T05:21:33.657Z,3.50
2023-05-28T05:24:01.585Z,3.50
2023-05-28T05:26:29.453Z,3.80
2023-05-28T05:28:57.499Z,3.33
2023-05-28T05:31:26.000Z,3.67
2023-05-28T05:33:54.108Z,3.30
2023-05-28T05:36:33.457Z,3.47
2023-05-28T05:39:27.670Z,3.15
2023-05-28T05:42:27.789Z,3.50
2023-05-28T05:44:56.331Z,3.20
2023-05-28T05:47:24.242Z,3.50
2023-05-28T05:49:53.091Z,3.17
2023-05-28T05:52:22.618Z,3.20
2023-05-28T05:54:54.535Z,2.90
2023-05-28T05:57:23.286Z,3.60
2023-05-28T05:59:51.191Z,3.40
2023-05-28T06:02:19.847Z,3.42
2023-05-28T06:04:47.994Z,3.50
2023-05-28T06:07:23.274Z,3.25
2023-05-28T06:10:14.187Z,3.55
2023-05-28T06:12:43.558Z,3.13
2023-05-28T06:15:12.575Z,3.53
2023-05-28T06:17:41.038Z,3.20
2023-05-28T06:20:10.209Z,3.80
2023-05-28T06:22:40.316Z,3.13
2023-05-28T06:25:09.587Z,2.97
2023-05-28T06:27:37.791Z,3.20
2023-05-28T06:30:07.020Z,3.10
2023-05-28T06:32:35.004Z,3.28
2023-05-28T06:35:02.950Z,3.45
2023-05-28T06:37:31.035Z,2.90
2023-05-28T06:40:00.447Z,3.15
2023-05-28T06:42:28.899Z,2.97
2023-05-28T06:45:20.573Z,3.30
2023-05-28T06:47:49.024Z,3.10
2023-05-28T06:50:18.548Z,3.30
2023-05-28T06:52:48.805Z,3.08
2023-05-28T06:55:18.231Z,2.90
2023-05-28T06:58:01.156Z,3.05
2023-05-28T07:00:49.096Z,2.95
2023-05-28T07:03:40.106Z,2.65
2023-05-28T07:06:21.644Z,3.38
2023-05-28T07:08:49.636Z,3.30
2023-05-28T07:11:18.961Z,2.97
2023-05-28T07:13:49.044Z,2.58
2023-05-28T07:16:17.251Z,2.97
2023-05-28T07:18:45.244Z,3.35
2023-05-28T07:21:13.704Z,3.20
2023-05-28T07:26:14.256Z,2.60
2023-05-28T07:28:43.958Z,2.60
2023-05-28T07:31:11.896Z,2.80
2023-05-28T07:33:39.777Z,2.78
2023-05-28T07:36:08.015Z,2.80
2023-05-28T07:38:38.061Z,3.10
2023-05-28T07:41:06.464Z,2.70
2023-05-28T07:43:40.866Z,2.45
2023-05-28T07:46:18.707Z,2.90
2023-05-28T07:48:50.870Z,2.90
2023-05-28T07:51:41.902Z,2.60
2023-05-28T07:54:13.529Z,2.33
2023-05-28T07:56:42.930Z,2.15
2023-05-28T07:59:15.439Z,2.30
2023-05-28T08:01:47.774Z,2.30
2023-05-28T08:04:15.820Z,2.28
2023-05-28T08:06:44.283Z,2.40
2023-05-28T08:09:16.461Z,2.67
2023-05-28T08:11:44.680Z,2.38
2023-05-28T08:14:12.535Z,2.55
2023-05-28T08:16:43.464Z,2.60
2023-05-28T08:19:21.908Z,2.58
2023-05-28T08:21:53.885Z,2.33
2023-05-28T08:24:22.726Z,2.60
2023-05-28T08:26:52.085Z,2.80
2023-05-28T08:29:21.056Z,2.90
2023-05-28T08:31:55.645Z,2.58
2023-05-28T08:34:34.959Z,2.88
2023-05-28T08:37:03.008Z,2.80
2023-05-28T08:39:35.746Z,2.75
2023-05-28T08:42:04.126Z,2.65
2023-05-28T08:44:32.845Z,2.83
2023-05-28T08:47:01.546Z,2.67
2023-05-28T08:50:03.993Z,2.88
2023-05-28T08:52:37.620Z,2.72
2023-05-28T08:55:06.609Z,2.97
2023-05-28T08:57:40.224Z,2.50
2023-05-28T09:00:12.728Z,2.95
2023-05-28T09:03:08.962Z,2.88
2023-05-28T09:05:39.763Z,2.67
2023-05-28T09:08:10.179Z,2.92
2023-05-28T09:10:39.335Z,2.85
2023-05-28T09:13:08.042Z,2.83
2023-05-28T09:15:37.411Z,3.10
2023-05-28T09:18:08.086Z,3.07
2023-05-28T09:20:37.373Z,2.95
2023-05-28T09:23:08.811Z,2.85
2023-05-28T09:26:01.539Z,2.55
2023-05-28T09:28:34.965Z,3.35
2023-05-28T09:31:06.991Z,3.00
2023-05-28T09:36:04.104Z,2.53
2023-05-28T09:38:42.028Z,2.53
2023-05-28T09:41:20.376Z,2.92
2023-05-28T09:43:48.671Z,2.70
2023-05-28T09:46:16.501Z,3.13
2023-05-28T09:48:45.725Z,2.53
2023-05-28T09:51:16.199Z,2.75
2023-05-28T09:53:46.246Z,3.10
2023-05-28T09:56:15.012Z,2.85
2023-05-28T09:58:47.257Z,2.75
2023-05-28T10:01:17.756Z,2.78
2023-05-28T10:03:48.444Z,2.53
2023-05-28T10:06:18.256Z,2.75
2023-05-28T10:08:53.102Z,2.65
2023-05-28T10:11:24.078Z,2.90
2023-05-28T10:13:53.035Z,3.05
2023-05-28T10:16:21.427Z,3.35
2023-05-28T10:18:50.737Z,2.92
2023-05-28T10:21:21.920Z,2.83
2023-05-28T10:23:51.252Z,2.63
2023-05-28T10:26:20.125Z,2.58
2023-05-28T10:28:48.096Z,2.97
2023-05-28T10:31:23.863Z,2.90
2023-05-28T10:33:51.968Z,2.60
2023-05-28T10:36:20.141Z,2.50
2023-05-28T10:39:00.594Z,2.50
2023-05-28T10:41:33.411Z,2.65
2023-05-28T10:44:08.077Z,2.60
2023-05-28T10:46:39.805Z,2.65
2023-05-28T10:49:11.104Z,2.65
2023-05-28T10:51:54.121Z,2.67
2023-05-28T10:54:42.471Z,3.00
2023-05-28T10:57:15.733Z,2.72
2023-05-28T10:59:48.295Z,2.38
2023-05-28T11:02:20.402Z,2.85
2023-05-28T11:04:52.297Z,2.88
2023-05-28T11:07:21.941Z,2.67
2023-05-28T11:09:52.990Z,2.78
2023-05-28T11:12:22.354Z,2.42
2023-05-28T11:14:50.724Z,2.67
2023-05-28T11:17:18.741Z,2.47
2023-05-28T11:19:47.599Z,2.42
2023-05-28T11:22:17.438Z,2.58
2023-05-28T11:24:59.558Z,2.80
2023-05-28T11:29:58.094Z,2.40
2023-05-28T11:32:26.434Z,2.50
2023-05-28T11:34:55.882Z,2.60
2023-05-28T11:37:28.645Z,2.40
2023-05-28T11:39:58.880Z,2.30
2023-05-28T11:42:27.864Z,2.58
2023-05-28T11:44:56.022Z,2.60
2023-05-28T11:47:24.176Z,2.75
2023-05-28T11:49:52.873Z,2.40
2023-05-28T11:52:22.213Z,2.42
2023-05-28T11:54:55.812Z,2.38
2023-05-28T11:57:26.606Z,2.60
2023-05-28T12:00:03.062Z,2.50
2023-05-28T12:02:44.353Z,2.45
2023-05-28T12:05:12.298Z,2.47
2023-05-28T12:07:45.849Z,2.67
2023-05-28T12:10:15.507Z,2.55
2023-05-28T12:12:47.302Z,2.63
2023-05-28T12:15:16.326Z,2.30
2023-05-28T12:17:48.336Z,2.45
2023-05-28T12:20:33.187Z,2.63
2023-05-28T12:23:02.555Z,2.65
2023-05-28T12:25:30.620Z,2.40
2023-05-28T12:27:59.868Z,2.60
2023-05-28T12:30:27.809Z,2.38
2023-05-28T12:32:55.685Z,2.70
2023-05-28T12:35:23.876Z,2.53
2023-05-28T12:37:51.938Z,2.60
2023-05-28T12:40:20.119Z,2.45
2023-05-28T12:42:48.002Z,2.75
2023-05-28T12:45:17.218Z,2.60
2023-05-28T12:47:45.272Z,2.70
2023-05-28T12:50:13.322Z,2.50
2023-05-28T12:52:41.233Z,2.20
2023-05-28T12:55:14.940Z,2.50
2023-05-28T12:57:44.272Z,2.50
2023-05-28T13:00:13.378Z,2.70
2023-05-28T13:02:42.931Z,2.63
2023-05-28T13:05:11.489Z,2.13
2023-05-28T13:07:39.427Z,2.47
2023-05-28T13:10:09.235Z,2.65
2023-05-28T13:12:38.063Z,2.40
2023-05-28T13:15:07.383Z,2.30
2023-05-28T13:17:35.280Z,2.38
2023-05-28T13:20:11.443Z,2.47
2023-05-28T13:22:39.849Z,2.50
2023-05-28T13:25:08.821Z,2.30
2023-05-28T13:27:36.793Z,2.33
2023-05-28T13:30:05.223Z,2.22
2023-05-28T13:32:33.288Z,2.45
2023-05-28T13:35:01.166Z,2.60
2023-05-28T13:37:33.697Z,2.35
2023-05-28T13:40:01.758Z,2.60
2023-05-28T13:42:29.845Z,2.45
2023-05-28T13:44:57.940Z,2.50
2023-05-28T13:47:26.869Z,2.47
2023-05-28T13:49:54.855Z,2.15
2023-05-28T13:52:24.003Z,2.22
2023-05-28T13:54:53.218Z,2.20
2023-05-28T13:57:21.432Z,2.22
2023-05-28T13:59:50.177Z,2.10
2023-05-28T14:02:19.179Z,2.15
2023-05-28T14:04:47.136Z,2.38
2023-05-28T14:07:15.066Z,2.50
2023-05-28T14:09:42.977Z,2.33
2023-05-28T14:14:43.206Z,2.45
2023-05-28T14:17:11.162Z,2.60
2023-05-28T14:19:39.039Z,2.50
2023-05-28T14:22:06.994Z,2.50
2023-05-28T14:24:35.731Z,2.17
2023-05-28T14:27:03.637Z,2.38
2023-05-28T14:29:32.860Z,2.15
2023-05-28T14:32:00.753Z,2.33
2023-05-28T14:34:30.036Z,2.28
2023-05-28T14:36:59.573Z,2.72
2023-05-28T14:39:27.609Z,2.55
2023-05-28T14:41:55.412Z,2.25
2023-05-28T14:44:23.291Z,2.38
2023-05-28T14:46:52.576Z,2.28
2023-05-28T14:49:20.611Z,2.50
2023-05-28T14:51:48.439Z,2.50
2023-05-28T14:54:16.346Z,2.50
2023-05-28T14:56:44.136Z,2.20
2023-05-28T14:59:12.068Z,2.38
2023-05-28T15:01:40.060Z,2.50
2023-05-28T15:04:09.484Z,2.20
2023-05-28T15:06:37.976Z,2.20
2023-05-28T15:09:05.971Z,2.08
2023-05-28T15:11:34.399Z,2.10
2023-05-28T15:14:02.339Z,2.10
2023-05-28T15:16:30.324Z,2.33
2023-05-28T15:18:58.743Z,2.30
2023-05-28T15:21:27.942Z,2.60
2023-05-28T15:23:56.059Z,3.13
2023-05-28T15:26:24.120Z,2.50
2023-05-28T15:28:52.328Z,2.40
2023-05-28T15:31:21.650Z,2.10
2023-05-28T15:33:50.624Z,2.22
2023-05-28T15:36:19.162Z,2.40
2023-05-28T15:38:49.269Z,2.22
2023-05-28T15:41:17.830Z,2.30
2023-05-28T15:43:46.066Z,2.20
2023-05-28T15:46:14.417Z,2.25
2023-05-28T15:48:42.462Z,2.30
2023-05-28T15:51:11.294Z,2.30
2023-05-28T15:53:39.362Z,2.58
2023-05-28T15:56:09.538Z,1.80
2023-05-28T15:58:37.666Z,2.35
2023-05-28T16:01:06.421Z,2.13
2023-05-28T16:03:35.027Z,2.20
2023-05-28T16:06:04.035Z,2.20
2023-05-28T16:08:32.231Z,2.28
2023-05-28T16:11:00.644Z,1.85
2023-05-28T16:13:31.222Z,2.53
2023-05-28T16:16:00.068Z,2.40
2023-05-28T16:18:29.920Z,2.55
2023-05-28T16:20:58.217Z,2.50
2023-05-28T16:23:26.784Z,2.45
2023-05-28T16:25:55.387Z,2.50
2023-05-28T16:28:23.890Z,2.13
2023-05-28T16:30:53.694Z,1.95
2023-05-28T16:33:21.862Z,2.30
2023-05-28T16:35:50.475Z,2.00
2023-05-28T16:38:18.928Z,2.50
2023-05-28T16:40:47.164Z,2.00
2023-05-28T16:43:16.328Z,2.30
2023-05-28T16:45:44.601Z,1.90
2023-05-28T16:48:15.086Z,1.80
2023-05-28T16:50:43.068Z,1.92
2023-05-28T16:53:12.991Z,2.00
2023-05-28T16:55:42.018Z,2.00
2023-05-28T16:58:09.998Z,2.10
2023-05-28T17:00:37.931Z,2.08
2023-05-28T17:03:06.599Z,2.20
2023-05-28T17:05:36.070Z,2.05
2023-05-28T17:08:04.929Z,2.05
2023-05-28T17:10:32.856Z,2.08
2023-05-28T17:13:00.753Z,2.05
2023-05-28T17:15:28.669Z,2.25
2023-05-28T17:17:56.647Z,1.92
2023-05-28T17:20:24.831Z,2.10
2023-05-28T17:22:56.022Z,2.03
2023-05-28T17:25:25.870Z,1.95
2023-05-28T17:27:54.525Z,2.17
2023-05-28T17:30:22.572Z,1.95
2023-05-28T17:32:50.583Z,1.85
2023-05-28T17:35:18.685Z,1.90
2023-05-28T17:37:46.591Z,2.50
2023-05-28T17:40:16.862Z,1.98
2023-05-28T17:42:44.870Z,2.25
2023-05-28T17:45:12.964Z,2.35
2023-05-28T17:47:41.065Z,2.20
2023-05-28T17:50:10.926Z,2.30
2023-05-28T17:52:39.039Z,2.50
2023-05-28T17:55:07.693Z,2.38
2023-05-28T17:57:37.294Z,2.83
2023-05-28T18:00:11.457Z,2.50
2023-05-28T18:02:39.958Z,2.30
2023-05-28T18:05:08.730Z,2.80
2023-05-28T18:07:36.926Z,2.53
2023-05-28T18:10:06.003Z,2.70
2023-05-28T18:12:36.266Z,2.65
2023-05-28T18:15:05.433Z,2.35
2023-05-28T18:17:33.501Z,2.40
2023-05-28T18:20:01.434Z,2.40
2023-05-28T18:22:30.153Z,2.20
2023-05-28T18:24:58.016Z,2.55
2023-05-28T18:27:26.034Z,2.50
2023-05-28T18:29:55.420Z,2.50
2023-05-28T18:32:23.887Z,2.40
2023-05-28T18:34:51.932Z,2.70
2023-05-28T18:37:19.825Z,2.78
2023-05-28T18:39:47.971Z,2.65
2023-05-28T18:42:15.910Z,2.70
2023-05-28T18:44:45.420Z,2.65
2023-05-28T18:47:14.749Z,2.55
2023-05-28T18:49:42.914Z,2.50
2023-05-28T18:52:11.407Z,2.53
2023-05-28T18:54:39.278Z,2.70
2023-05-28T18:57:08.623Z,2.30
2023-05-28T18:59:39.297Z,2.70
2023-05-28T19:02:07.282Z,2.70
2023-05-28T19:04:36.670Z,2.92
2023-05-28T19:07:05.028Z,2.40
2023-05-28T19:09:32.856Z,2.70
2023-05-28T19:12:00.906Z,2.95
2023-05-28T19:14:28.886Z,2.88
2023-05-28T19:16:56.799Z,4.10
2023-05-28T19:19:25.073Z,4.10
2023-05-28T19:21:54.411Z,3.47
2023-05-28T19:24:22.505Z,3.53
2023-05-28T19:26:50.982Z,4.40
2023-05-28T19:29:18.981Z,4.22
2023-05-28T19:31:46.837Z,3.50
2023-05-28T19:34:14.803Z,3.45
2023-05-28T19:36:42.807Z,3.45
2023-05-28T19:39:12.117Z,3.67
2023-05-28T19:41:40.034Z,3.15
2023-05-28T19:44:08.065Z,2.95
2023-05-28T19:46:36.256Z,3.00
2023-05-28T19:49:04.166Z,3.60
2023-05-28T19:51:32.995Z,3.40
2023-05-28T19:54:00.830Z,3.38
2023-05-28T19:56:30.148Z,3.55
2023-05-28T19:58:58.412Z,2.90
2023-05-28T20:01:26.508Z,3.42
2023-05-28T20:03:54.420Z,3.05
2023-05-28T20:06:23.230Z,2.72
2023-05-28T20:08:51.373Z,2.78
2023-05-28T20:11:21.502Z,2.70
2023-05-28T20:13:50.844Z,3.10
2023-05-28T20:16:19.268Z,2.90
2023-05-28T20:18:48.021Z,3.10
2023-05-28T20:21:16.903Z,3.15
2023-05-28T20:23:44.843Z,2.95
2023-05-28T20:26:12.720Z,2.83
2023-05-28T20:28:41.218Z,3.05
2023-05-28T20:31:10.517Z,2.95
2023-05-28T20:33:38.350Z,3.30
2023-05-28T20:36:06.871Z,3.03
2023-05-28T20:38:34.820Z,3.53
2023-05-28T20:41:04.865Z,3.25
2023-05-28T20:43:36.695Z,3.22
2023-05-28T20:46:04.998Z,3.00
2023-05-28T20:48:34.332Z,3.10
2023-05-28T20:51:02.576Z,3.28
2023-05-28T20:53:30.565Z,3.30
2023-05-28T20:55:58.483Z,3.20
2023-05-28T21:01:00.448Z,3.13
2023-05-28T21:03:28.508Z,3.47
2023-05-28T21:05:57.824Z,3.50
2023-05-28T21:08:25.655Z,3.45
2023-05-28T21:10:53.685Z,3.72
2023-05-28T21:13:22.335Z,3.50
2023-05-28T21:15:50.260Z,3.33
2023-05-28T21:18:18.324Z,2.70
2023-05-28T21:20:46.389Z,3.00
2023-05-28T21:23:15.783Z,2.90
2023-05-28T21:25:44.762Z,2.60
2023-05-28T21:28:12.620Z,3.00
2023-05-28T21:30:40.588Z,2.92
2023-05-28T21:33:08.566Z,2.75
2023-05-28T21:35:36.529Z,2.80
2023-05-28T21:38:04.372Z,2.55
2023-05-28T21:40:33.652Z,2.75
2023-05-28T21:43:01.609Z,2.67
2023-05-28T21:45:29.474Z,2.65
2023-05-28T21:47:57.389Z,2.67
2023-05-28T21:50:28.098Z,2.63
2023-05-28T21:52:57.988Z,2.58
2023-05-28T21:55:26.403Z,2.70
2023-05-28T21:57:55.639Z,2.35
2023-05-28T22:00:26.583Z,2.65
2023-05-28T22:02:54.894Z,2.67
2023-05-28T22:05:24.249Z,2.53
2023-05-28T22:07:52.827Z,2.65
2023-05-28T22:10:21.310Z,2.40
2023-05-28T22:12:50.739Z,2.70
2023-05-28T22:15:21.074Z,2.47
2023-05-28T22:17:49.018Z,2.00
2023-05-28T22:20:18.602Z,2.00
2023-05-28T22:22:46.657Z,2.88
2023-05-28T22:25:14.537Z,2.28
2023-05-28T22:27:42.514Z,2.30
2023-05-28T22:30:11.655Z,2.22
2023-05-28T22:32:41.233Z,2.75
2023-05-28T22:35:09.954Z,2.00
2023-05-28T22:37:37.825Z,2.30
2023-05-28T22:40:09.616Z,1.92
2023-05-28T22:42:37.639Z,2.17
2023-05-28T22:45:06.026Z,2.47
2023-05-28T22:47:33.980Z,1.70
2023-05-28T22:50:03.370Z,2.00
2023-05-28T22:52:31.761Z,1.92
2023-05-28T22:54:59.631Z,2.10
2023-05-28T22:57:27.593Z,2.13
2023-05-28T22:59:56.872Z,1.98
2023-05-28T23:02:25.769Z,1.90
2023-05-28T23:04:53.886Z,2.10
2023-05-28T23:07:24.249Z,2.10
2023-05-28T23:09:52.122Z,2.00
2023-05-28T23:12:20.002Z,2.00
2023-05-28T23:14:48.148Z,1.90
2023-05-28T23:17:18.083Z,1.90
2023-05-28T23:19:46.079Z,2.08
2023-05-28T23:22:14.203Z,1.85
2023-05-28T23:24:43.814Z,2.20
2023-05-28T23:27:11.815Z,1.98
2023-05-28T23:29:39.802Z,1.95
2023-05-28T23:32:08.291Z,1.70
2023-05-28T23:34:36.273Z,1.85
2023-05-28T23:37:04.389Z,1.90
2023-05-28T23:39:32.742Z,1.88
2023-05-28T23:42:02.363Z,1.80
2023-05-28T23:44:31.144Z,1.80
2023-05-28T23:46:59.010Z,2.03
2023-05-28T23:49:26.895Z,2.40
2023-05-28T23:51:54.711Z,2.00
2023-05-28T23:54:22.681Z,1.80
2023-05-28T23:56:50.493Z,1.90
2023-05-28T23:59:19.774Z,1.92
